Time;durP1;ratioP1;P1;durP2;ratioP2;P2;SDS_P1;SDS_P2;PMS_P1;PMS_P2;Temp;Humidity;BMP_temperature;BMP_pressure;BME280_temperature;BME280_humidity;BME280_pressure;Samples;Min_cycle;Max_cycle;Signal;HPM_P1;HPM_P2
2023/07/31 00:00:27;;;;;;;3.83;1.67;;;;;;;;;;5009977;28;20046;-80
2023/07/31 00:02:53;;;;;;;5.63;2.15;;;;;;;;;;5015932;28;20103;-80
2023/07/31 00:05:18;;;;;;;6.22;1.80;;;;;;;;;;5020134;28;20049;-80
2023/07/31 00:07:44;;;;;;;4.68;1.70;;;;;;;;;;5018234;28;20511;-80
2023/07/31 00:10:09;;;;;;;6.60;1.88;;;;;;;;;;5009526;28;20068;-80
2023/07/31 00:12:35;;;;;;;3.70;1.67;;;;;;;;;;5002024;28;20029;-80
2023/07/31 00:15:04;;;;;;;4.43;1.88;;;;;;;;;;5002553;28;20037;-80
2023/07/31 00:17:29;;;;;;;4.90;2.08;;;;;;;;;;5011255;28;20092;-80
2023/07/31 00:19:55;;;;;;;5.75;1.90;;;;;;;;;;5025971;28;20457;-80
2023/07/31 00:22:20;;;;;;;5.50;1.83;;;;;;;;;;5040395;28;20092;-80
2023/07/31 00:24:47;;;;;;;4.57;2.05;;;;;;;;;;5009912;28;20091;-80
2023/07/31 00:27:12;;;;;;;6.00;2.15;;;;;;;;;;5028087;28;20400;-80
2023/07/31 00:29:37;;;;;;;4.25;1.85;;;;;;;;;;4998729;28;20120;-81
2023/07/31 00:32:03;;;;;;;6.50;2.30;;;;;;;;;;5024788;28;20444;-80
2023/07/31 00:34:31;;;;;;;4.47;1.90;;;;;;;;;;5014433;28;20030;-80
2023/07/31 00:36:56;;;;;;;;;;;;;;;;;;5006022;28;20041;-80
2023/07/31 00:39:21;;;;;;;5.32;1.90;;;;;;;;;;5001203;28;19924;-80
2023/07/31 00:41:49;;;;;;;4.32;1.80;;;;;;;;;;5016154;28;20041;-81
2023/07/31 00:44:14;;;;;;;4.10;2.10;;;;;;;;;;5004351;28;20574;-80
2023/07/31 00:46:40;;;;;;;6.57;2.30;;;;;;;;;;5012864;28;20096;-80
2023/07/31 00:49:08;;;;;;;5.93;2.10;;;;;;;;;;5015437;28;20064;-80
2023/07/31 00:51:33;;;;;;;5.10;1.95;;;;;;;;;;5002222;28;20063;-80
2023/07/31 00:53:59;;;;;;;5.18;1.92;;;;;;;;;;4991196;28;20041;-81
2023/07/31 00:56:25;;;;;;;6.38;2.15;;;;;;;;;;5000128;28;20033;-81
2023/07/31 00:58:50;;;;;;;4.68;2.20;;;;;;;;;;5000989;28;20175;-81
2023/07/31 01:01:16;;;;;;;5.53;2.10;;;;;;;;;;5012395;28;20137;-81
2023/07/31 01:03:42;;;;;;;5.30;2.10;;;;;;;;;;5000568;28;20080;-81
2023/07/31 01:06:38;;;;;;;5.25;2.17;;;;;;;;;;5010233;28;20409;-81
2023/07/31 01:09:09;;;;;;;4.15;1.98;;;;;;;;;;5021810;28;20046;-81
2023/07/31 01:11:38;;;;;;;5.38;2.28;;;;;;;;;;5028814;28;20057;-81
2023/07/31 01:14:04;;;;;;;6.70;2.10;;;;;;;;;;5041324;28;20042;-81
2023/07/31 01:16:30;;;;;;;4.70;2.47;;;;;;;;;;5007612;28;20030;-81
2023/07/31 01:18:55;;;;;;;7.38;2.55;;;;;;;;;;5015188;28;20113;-81
2023/07/31 01:21:36;;;;;;;7.65;2.38;;;;;;;;;;5006468;28;20081;-81
2023/07/31 01:24:50;;;;;;;5.25;2.30;;;;;;;;;;5010847;28;20042;-81
2023/07/31 01:27:21;;;;;;;6.18;2.63;;;;;;;;;;4981308;28;20097;-81
2023/07/31 01:29:50;;;;;;;4.55;2.50;;;;;;;;;;5033199;28;20029;-81
2023/07/31 01:32:19;;;;;;;6.82;2.63;;;;;;;;;;5005896;28;20049;-81
2023/07/31 01:34:45;;;;;;;5.18;2.25;;;;;;;;;;5001762;28;20034;-80
2023/07/31 01:37:11;;;;;;;6.78;2.72;;;;;;;;;;5003664;28;20033;-80
2023/07/31 01:39:36;;;;;;;6.50;2.47;;;;;;;;;;5006838;28;20108;-80
2023/07/31 01:42:01;;;;;;;5.18;2.50;;;;;;;;;;5029962;28;20166;-80
2023/07/31 01:44:27;;;;;;;7.25;2.80;;;;;;;;;;5030095;28;20103;-80
2023/07/31 01:46:52;;;;;;;5.40;2.80;;;;;;;;;;4993396;28;20052;-80
2023/07/31 01:49:17;;;;;;;6.55;2.67;;;;;;;;;;4996845;28;20627;-80
2023/07/31 01:51:43;;;;;;;6.75;2.92;;;;;;;;;;5000916;28;20523;-81
2023/07/31 01:54:08;;;;;;;5.10;2.67;;;;;;;;;;5027508;28;20053;-80
2023/07/31 01:56:34;;;;;;;6.60;2.50;;;;;;;;;;5001203;28;20790;-80
2023/07/31 01:58:59;;;;;;;6.32;2.38;;;;;;;;;;5000080;28;20076;-80
2023/07/31 02:01:24;;;;;;;4.85;2.67;;;;;;;;;;4997326;28;20029;-80
2023/07/31 02:03:50;;;;;;;7.28;2.40;;;;;;;;;;5001022;28;21766;-80
2023/07/31 02:06:15;;;;;;;8.15;2.67;;;;;;;;;;5019123;28;20026;-80
2023/07/31 02:08:41;;;;;;;6.10;2.20;;;;;;;;;;5007411;28;20056;-80
2023/07/31 02:11:06;;;;;;;5.85;2.95;;;;;;;;;;5000151;28;20056;-79
2023/07/31 02:13:31;;;;;;;7.40;2.80;;;;;;;;;;5028436;28;20385;-80
2023/07/31 02:15:57;;;;;;;7.60;2.97;;;;;;;;;;4998319;28;20041;-80
2023/07/31 02:18:23;;;;;;;6.50;2.85;;;;;;;;;;5014398;28;20029;-80
2023/07/31 02:20:52;;;;;;;4.78;2.35;;;;;;;;;;5044822;28;20034;-79
2023/07/31 02:23:18;;;;;;;5.78;2.92;;;;;;;;;;5005913;28;20044;-80
2023/07/31 02:25:44;;;;;;;5.28;2.60;;;;;;;;;;5017730;28;20076;-80
2023/07/31 02:28:10;;;;;;;4.80;2.70;;;;;;;;;;4984240;28;20056;-80
2023/07/31 02:30:35;;;;;;;5.65;2.80;;;;;;;;;;5004257;28;20037;-80
2023/07/31 02:33:01;;;;;;;5.05;2.50;;;;;;;;;;5014622;28;20048;-80
2023/07/31 02:35:31;;;;;;;6.18;2.53;;;;;;;;;;5002189;28;20421;-79
2023/07/31 02:37:57;;;;;;;6.45;2.80;;;;;;;;;;5023888;28;20119;-80
2023/07/31 02:40:23;;;;;;;6.82;2.85;;;;;;;;;;5001820;28;20849;-80
2023/07/31 02:42:48;;;;;;;8.10;2.90;;;;;;;;;;5014838;28;20460;-80
2023/07/31 02:45:14;;;;;;;5.57;3.10;;;;;;;;;;4998834;28;20052;-80
2023/07/31 02:47:42;;;;;;;6.55;2.80;;;;;;;;;;5033107;28;20554;-80
2023/07/31 02:50:08;;;;;;;6.82;3.08;;;;;;;;;;5018713;28;20417;-80
2023/07/31 02:52:33;;;;;;;4.90;2.97;;;;;;;;;;5005304;28;20036;-81
2023/07/31 02:54:59;;;;;;;7.38;3.10;;;;;;;;;;5020809;28;20488;-80
2023/07/31 02:57:24;;;;;;;7.53;3.45;;;;;;;;;;5004485;28;20057;-80
2023/07/31 02:59:50;;;;;;;7.78;3.28;;;;;;;;;;5010803;28;20509;-80
2023/07/31 03:02:21;;;;;;;6.13;3.55;;;;;;;;;;5011786;28;20105;-82
2023/07/31 03:04:46;;;;;;;7.78;3.72;;;;;;;;;;5025401;28;20088;-82
2023/07/31 03:07:12;;;;;;;6.97;3.95;;;;;;;;;;4996224;28;20073;-82
2023/07/31 03:09:37;;;;;;;6.85;3.55;;;;;;;;;;5010854;28;20052;-82
2023/07/31 03:12:03;;;;;;;7.45;3.95;;;;;;;;;;4993133;28;20724;-82
2023/07/31 03:14:29;;;;;;;5.25;3.80;;;;;;;;;;5017537;28;20465;-82
2023/07/31 03:16:54;;;;;;;6.45;3.75;;;;;;;;;;5003956;28;20551;-83
2023/07/31 03:19:20;;;;;;;8.93;4.10;;;;;;;;;;5015152;28;20444;-83
2023/07/31 03:21:45;;;;;;;8.75;3.92;;;;;;;;;;5011951;28;20428;-83
2023/07/31 03:24:12;;;;;;;8.90;3.72;;;;;;;;;;4995775;28;20084;-82
2023/07/31 03:26:38;;;;;;;8.23;3.75;;;;;;;;;;5021402;28;20045;-82
2023/07/31 03:29:03;;;;;;;7.50;4.10;;;;;;;;;;5012141;28;20037;-81
2023/07/31 03:31:32;;;;;;;9.07;4.20;;;;;;;;;;4998598;28;20377;-83
2023/07/31 03:33:57;;;;;;;8.35;4.50;;;;;;;;;;5008498;28;20041;-82
2023/07/31 03:36:23;;;;;;;7.07;3.95;;;;;;;;;;5014695;28;20041;-82
2023/07/31 03:38:48;;;;;;;7.50;4.53;;;;;;;;;;5002935;28;20025;-82
2023/07/31 03:41:14;;;;;;;8.02;4.13;;;;;;;;;;5020071;28;21047;-82
2023/07/31 03:43:39;;;;;;;8.27;4.15;;;;;;;;;;5011507;28;20060;-82
2023/07/31 03:46:05;;;;;;;7.57;4.45;;;;;;;;;;4996327;28;20125;-82
2023/07/31 03:48:30;;;;;;;7.05;3.92;;;;;;;;;;5029079;28;20037;-82
2023/07/31 03:50:55;;;;;;;6.25;4.18;;;;;;;;;;4987801;28;20038;-82
2023/07/31 03:53:21;;;;;;;8.05;4.10;;;;;;;;;;4996965;28;20111;-82
2023/07/31 03:55:47;;;;;;;9.25;4.43;;;;;;;;;;4995122;28;20030;-82
2023/07/31 03:58:15;;;;;;;9.23;4.18;;;;;;;;;;4996669;28;20044;-82
2023/07/31 04:00:41;;;;;;;9.73;4.15;;;;;;;;;;4996588;28;20044;-82
2023/07/31 04:03:06;;;;;;;7.25;4.40;;;;;;;;;;5016966;28;20106;-82
2023/07/31 04:05:32;;;;;;;6.85;3.88;;;;;;;;;;5023853;28;20505;-82
2023/07/31 04:07:57;;;;;;;7.57;4.00;;;;;;;;;;5023870;28;20524;-82
2023/07/31 04:10:25;;;;;;;8.75;3.70;;;;;;;;;;4989332;28;20038;-82
2023/07/31 04:12:50;;;;;;;11.07;4.25;;;;;;;;;;5014834;28;20523;-82
2023/07/31 04:15:16;;;;;;;7.40;3.70;;;;;;;;;;5031015;28;20038;-82
2023/07/31 04:17:41;;;;;;;7.78;4.00;;;;;;;;;;5037747;28;20492;-82
2023/07/31 04:20:10;;;;;;;9.20;3.92;;;;;;;;;;5003029;28;20040;-82
2023/07/31 04:22:36;;;;;;;5.90;3.67;;;;;;;;;;5003943;28;20573;-82
2023/07/31 04:25:01;;;;;;;9.15;4.10;;;;;;;;;;5011655;28;20117;-82
2023/07/31 04:27:27;;;;;;;8.80;4.15;;;;;;;;;;5011918;28;20125;-82
2023/07/31 04:29:52;;;;;;;8.77;4.15;;;;;;;;;;5018954;28;20060;-82
2023/07/31 04:32:19;;;;;;;8.60;4.00;;;;;;;;;;5011274;28;20045;-82
2023/07/31 04:34:44;;;;;;;9.23;4.28;;;;;;;;;;5005025;28;20120;-82
2023/07/31 04:37:10;;;;;;;9.27;4.32;;;;;;;;;;5011423;28;20117;-82
2023/07/31 04:39:35;;;;;;;5.30;3.67;;;;;;;;;;4994606;28;20033;-82
2023/07/31 04:42:00;;;;;;;8.50;4.10;;;;;;;;;;5009429;28;20026;-82
2023/07/31 04:44:26;;;;;;;9.98;4.20;;;;;;;;;;5026184;28;20130;-82
2023/07/31 04:46:51;;;;;;;9.35;4.18;;;;;;;;;;5030628;28;20075;-83
2023/07/31 04:49:19;;;;;;;8.07;4.47;;;;;;;;;;5012477;28;20516;-82
2023/07/31 04:51:44;;;;;;;10.45;4.40;;;;;;;;;;5017925;28;20034;-83
2023/07/31 04:54:12;;;;;;;9.10;4.18;;;;;;;;;;5042575;28;20033;-83
2023/07/31 04:56:37;;;;;;;8.40;4.30;;;;;;;;;;5028322;28;20507;-82
2023/07/31 04:59:03;;;;;;;8.63;4.22;;;;;;;;;;4985077;28;20037;-82
2023/07/31 05:01:29;;;;;;;7.63;4.10;;;;;;;;;;5016344;28;20037;-82
2023/07/31 05:03:54;;;;;;;9.07;4.40;;;;;;;;;;5015257;28;20424;-82
2023/07/31 05:06:20;;;;;;;8.50;4.20;;;;;;;;;;5005179;28;20038;-83
2023/07/31 05:08:45;;;;;;;7.63;4.07;;;;;;;;;;5049193;28;20050;-82
2023/07/31 05:11:12;;;;;;;8.32;4.03;;;;;;;;;;4999882;28;20493;-82
2023/07/31 05:13:38;;;;;;;8.32;4.72;;;;;;;;;;5031170;28;20485;-82
2023/07/31 05:16:03;;;;;;;17.33;5.20;;;;;;;;;;5001175;28;20036;-82
2023/07/31 05:18:28;;;;;;;7.55;4.20;;;;;;;;;;5021697;28;20044;-82
2023/07/31 05:20:54;;;;;;;6.05;3.80;;;;;;;;;;5049497;28;20080;-82
2023/07/31 05:23:19;;;;;;;8.02;3.25;;;;;;;;;;5004697;28;20088;-82
2023/07/31 05:25:44;;;;;;;8.05;3.60;;;;;;;;;;5006184;28;20025;-83
2023/07/31 05:28:11;;;;;;;7.47;3.80;;;;;;;;;;4997422;28;20042;-82
2023/07/31 05:30:36;;;;;;;6.45;3.30;;;;;;;;;;5029459;28;20052;-82
2023/07/31 05:33:02;;;;;;;6.85;3.22;;;;;;;;;;5003972;28;20034;-82
2023/07/31 05:35:27;;;;;;;5.93;3.22;;;;;;;;;;5014571;28;20374;-82
2023/07/31 05:37:53;;;;;;;7.72;3.35;;;;;;;;;;5014975;28;20374;-82
2023/07/31 05:40:18;;;;;;;6.32;3.22;;;;;;;;;;4998320;28;20050;-83
2023/07/31 05:42:43;;;;;;;5.93;2.88;;;;;;;;;;5006634;28;20034;-83
2023/07/31 05:45:09;;;;;;;8.88;3.20;;;;;;;;;;4997873;28;20041;-83
2023/07/31 05:47:35;;;;;;;7.05;3.17;;;;;;;;;;5010319;28;20109;-83
2023/07/31 05:50:00;;;;;;;9.05;3.13;;;;;;;;;;5013677;28;20497;-83
2023/07/31 05:52:26;;;;;;;8.73;3.10;;;;;;;;;;5011847;28;20044;-82
2023/07/31 05:54:51;;;;;;;6.32;3.17;;;;;;;;;;4998805;28;20107;-82
2023/07/31 05:57:17;;;;;;;7.45;3.28;;;;;;;;;;5015322;28;20029;-82
2023/07/31 05:59:42;;;;;;;6.95;3.15;;;;;;;;;;5018133;28;20037;-83
2023/07/31 06:02:08;;;;;;;6.75;3.17;;;;;;;;;;5015678;28;20068;-83
2023/07/31 06:04:36;;;;;;;6.47;3.00;;;;;;;;;;5007500;28;20532;-82
2023/07/31 06:07:02;;;;;;;4.80;2.63;;;;;;;;;;4997476;28;20038;-82
2023/07/31 06:09:28;;;;;;;6.97;3.10;;;;;;;;;;5013629;28;20100;-82
2023/07/31 06:11:53;;;;;;;7.85;2.80;;;;;;;;;;5018368;28;20385;-82
2023/07/31 06:14:19;;;;;;;8.07;3.75;;;;;;;;;;4999954;28;20136;-82
2023/07/31 06:16:44;;;;;;;8.13;3.05;;;;;;;;;;5022818;28;20513;-82
2023/07/31 06:19:10;;;;;;;6.72;3.00;;;;;;;;;;5003464;28;20061;-82
2023/07/31 06:21:37;;;;;;;4.90;2.38;;;;;;;;;;5013868;28;20113;-83
2023/07/31 06:24:03;;;;;;;7.25;3.28;;;;;;;;;;4999623;28;20091;-82
2023/07/31 06:26:29;;;;;;;7.25;2.92;;;;;;;;;;5005841;28;20033;-83
2023/07/31 06:28:54;;;;;;;5.75;2.72;;;;;;;;;;4998321;28;20041;-82
2023/07/31 06:31:22;;;;;;;6.80;2.55;;;;;;;;;;5003980;28;20038;-82
2023/07/31 06:33:54;;;;;;;5.72;2.22;;;;;;;;;;5038503;28;20038;-82
2023/07/31 06:36:20;;;;;;;7.00;2.58;;;;;;;;;;4990370;28;20037;-82
2023/07/31 06:38:45;;;;;;;7.15;2.38;;;;;;;;;;5007720;28;20047;-82
2023/07/31 06:41:10;;;;;;;6.78;2.45;;;;;;;;;;4994357;28;20046;-83
2023/07/31 06:43:38;;;;;;;5.18;2.40;;;;;;;;;;5009603;28;20021;-82
2023/07/31 06:46:08;;;;;;;5.95;2.40;;;;;;;;;;5029154;28;20041;-82
2023/07/31 06:48:34;;;;;;;6.80;2.47;;;;;;;;;;5007621;28;20063;-82
2023/07/31 06:51:01;;;;;;;7.53;2.83;;;;;;;;;;5009713;28;20040;-82
2023/07/31 06:53:26;;;;;;;7.18;2.60;;;;;;;;;;5007407;28;20042;-82
2023/07/31 06:55:53;;;;;;;5.72;2.17;;;;;;;;;;5012778;28;20045;-82
2023/07/31 06:58:18;;;;;;;7.18;2.42;;;;;;;;;;5006139;28;20050;-81
2023/07/31 07:00:44;;;;;;;8.38;2.50;;;;;;;;;;5002456;28;20124;-82
2023/07/31 07:03:14;;;;;;;7.32;2.70;;;;;;;;;;5012379;28;20065;-82
2023/07/31 07:05:40;;;;;;;5.90;2.58;;;;;;;;;;5001668;28;20085;-82
2023/07/31 07:08:05;;;;;;;7.68;2.60;;;;;;;;;;5019224;28;20041;-82
2023/07/31 07:10:30;;;;;;;9.05;3.05;;;;;;;;;;5013367;28;20041;-82
2023/07/31 07:12:56;;;;;;;7.55;2.75;;;;;;;;;;5014995;28;20069;-82
2023/07/31 07:15:21;;;;;;;6.50;3.08;;;;;;;;;;4999893;28;20046;-82
2023/07/31 07:17:47;;;;;;;6.30;2.60;;;;;;;;;;5028699;28;20037;-82
2023/07/31 07:20:12;;;;;;;7.78;2.90;;;;;;;;;;5030077;28;20042;-83
2023/07/31 07:22:38;;;;;;;5.60;2.80;;;;;;;;;;5027935;28;20537;-82
2023/07/31 07:25:09;;;;;;;5.43;2.78;;;;;;;;;;5022529;28;20034;-82
2023/07/31 07:27:34;;;;;;;7.75;3.08;;;;;;;;;;4996839;28;20036;-83
2023/07/31 07:30:00;;;;;;;6.50;2.83;;;;;;;;;;5003273;28;20033;-82
2023/07/31 07:32:25;;;;;;;7.32;2.85;;;;;;;;;;5009193;28;20084;-84
2023/07/31 07:34:51;;;;;;;5.57;2.83;;;;;;;;;;4999494;28;20045;-82
2023/07/31 07:37:16;;;;;;;7.78;3.30;;;;;;;;;;5015016;28;20116;-83
2023/07/31 07:39:42;;;;;;;5.75;2.75;;;;;;;;;;5027016;28;20030;-82
2023/07/31 07:42:07;;;;;;;6.70;2.55;;;;;;;;;;5000077;28;20049;-82
2023/07/31 07:44:33;;;;;;;7.25;2.58;;;;;;;;;;5046669;28;20041;-82
2023/07/31 07:46:58;;;;;;;6.25;2.47;;;;;;;;;;5014364;28;20426;-83
2023/07/31 07:49:23;;;;;;;6.88;2.95;;;;;;;;;;5011950;28;20033;-82
2023/07/31 07:51:49;;;;;;;5.35;2.53;;;;;;;;;;5010945;28;20032;-82
2023/07/31 07:54:16;;;;;;;6.47;2.63;;;;;;;;;;5017352;28;20037;-82
2023/07/31 07:56:42;;;;;;;7.00;2.53;;;;;;;;;;5003311;28;20038;-82
2023/07/31 07:59:08;;;;;;;6.25;3.05;;;;;;;;;;5028783;28;20113;-82
2023/07/31 08:01:33;;;;;;;8.07;2.60;;;;;;;;;;5004477;28;20033;-82
2023/07/31 08:03:59;;;;;;;4.10;2.30;;;;;;;;;;5007321;28;20057;-82
2023/07/31 08:06:24;;;;;;;6.55;2.70;;;;;;;;;;5005113;28;20060;-82
2023/07/31 08:08:50;;;;;;;4.57;2.60;;;;;;;;;;5002430;28;20042;-82
2023/07/31 08:11:15;;;;;;;7.10;2.67;;;;;;;;;;5000288;28;20052;-81
2023/07/31 08:13:41;;;;;;;5.32;2.85;;;;;;;;;;5001177;28;20072;-82
2023/07/31 08:16:06;;;;;;;6.97;2.97;;;;;;;;;;5010467;28;20034;-82
2023/07/31 08:18:32;;;;;;;8.00;3.03;;;;;;;;;;5012495;28;20038;-82
2023/07/31 08:20:58;;;;;;;6.65;2.95;;;;;;;;;;5015479;28;20049;-83
2023/07/31 08:23:23;;;;;;;5.53;2.97;;;;;;;;;;5017779;28;20036;-83
2023/07/31 08:25:51;;;;;;;5.88;2.55;;;;;;;;;;5020530;28;20033;-82
2023/07/31 08:28:16;;;;;;;5.55;2.88;;;;;;;;;;5018631;28;20551;-82
2023/07/31 08:30:42;;;;;;;4.80;2.75;;;;;;;;;;5007929;28;20053;-83
2023/07/31 08:33:08;;;;;;;5.90;3.03;;;;;;;;;;5007903;28;20037;-82
2023/07/31 08:35:36;;;;;;;8.48;3.38;;;;;;;;;;4999223;28;20649;-82
2023/07/31 08:38:02;;;;;;;4.88;2.72;;;;;;;;;;5005227;28;20041;-82
2023/07/31 08:40:28;;;;;;;8.25;3.10;;;;;;;;;;5005444;28;20034;-82
2023/07/31 08:42:56;;;;;;;6.45;3.05;;;;;;;;;;5008647;28;20091;-83
2023/07/31 08:45:25;;;;;;;5.68;2.50;;;;;;;;;;5014042;28;20907;-82
2023/07/31 08:47:52;;;;;;;5.68;2.70;;;;;;;;;;5029865;28;20108;-82
2023/07/31 08:50:20;;;;;;;6.07;2.60;;;;;;;;;;5017164;28;20494;-82
2023/07/31 08:52:46;;;;;;;6.65;2.63;;;;;;;;;;5008325;28;20026;-83
2023/07/31 08:55:11;;;;;;;5.95;2.00;;;;;;;;;;5007452;28;20080;-82
2023/07/31 08:57:38;;;;;;;3.22;1.83;;;;;;;;;;5015806;28;20029;-82
2023/07/31 09:00:08;;;;;;;4.10;1.92;;;;;;;;;;5020228;28;20403;-82
2023/07/31 09:02:49;;;;;;;3.47;1.50;;;;;;;;;;5006455;28;20489;-82
2023/07/31 09:05:15;;;;;;;4.05;1.92;;;;;;;;;;5039942;28;20480;-82
2023/07/31 09:07:46;;;;;;;2.97;1.50;;;;;;;;;;5009021;28;20040;-82
2023/07/31 09:10:11;;;;;;;3.13;1.45;;;;;;;;;;5019006;28;20034;-83
2023/07/31 09:12:38;;;;;;;5.63;1.67;;;;;;;;;;5030680;28;20041;-82
2023/07/31 09:15:04;;;;;;;3.58;1.27;;;;;;;;;;5026240;28;20048;-82
2023/07/31 09:17:30;;;;;;;2.50;1.10;;;;;;;;;;5006865;28;20568;-82
2023/07/31 09:19:56;;;;;;;2.35;0.95;;;;;;;;;;5012082;28;20112;-82
2023/07/31 09:22:35;;;;;;;3.22;1.02;;;;;;;;;;5017480;28;20181;-82
2023/07/31 09:25:21;;;;;;;4.10;1.58;;;;;;;;;;5041529;28;20044;-82
2023/07/31 09:27:59;;;;;;;2.55;0.95;;;;;;;;;;5034246;28;20041;-83
2023/07/31 09:30:25;;;;;;;4.25;1.02;;;;;;;;;;5016457;28;20397;-82
2023/07/31 09:33:02;;;;;;;4.32;0.90;;;;;;;;;;4999637;28;20030;-82
2023/07/31 09:35:30;;;;;;;3.85;1.27;;;;;;;;;;5021165;28;20517;-82
2023/07/31 09:37:58;;;;;;;1.80;0.90;;;;;;;;;;5016219;28;20062;-82
2023/07/31 09:40:28;;;;;;;2.35;1.00;;;;;;;;;;4998503;28;20033;-81
2023/07/31 09:43:10;;;;;;;1.95;0.90;;;;;;;;;;5008451;28;20509;-81
2023/07/31 09:45:36;;;;;;;2.58;0.88;;;;;;;;;;5003229;28;20029;-81
2023/07/31 09:48:02;;;;;;;2.53;1.10;;;;;;;;;;5035601;28;20132;-82
2023/07/31 09:50:28;;;;;;;3.97;1.20;;;;;;;;;;5004593;28;20120;-79
2023/07/31 09:52:53;;;;;;;2.90;1.45;;;;;;;;;;4995356;28;22161;-81
2023/07/31 09:55:19;;;;;;;2.90;1.40;;;;;;;;;;4995957;28;20436;-81
2023/07/31 09:57:48;;;;;;;2.72;1.38;;;;;;;;;;5010192;28;20116;-81
2023/07/31 10:00:16;;;;;;;3.78;2.10;;;;;;;;;;5034627;28;20063;-81
2023/07/31 10:02:50;;;;;;;4.43;2.10;;;;;;;;;;5007735;28;20076;-81
2023/07/31 10:05:18;;;;;;;4.60;2.40;;;;;;;;;;4999514;28;20047;-81
2023/07/31 10:07:57;;;;;;;7.35;2.50;;;;;;;;;;5033937;28;20044;-81
2023/07/31 10:10:23;;;;;;;4.57;2.25;;;;;;;;;;5027961;28;20041;-81
2023/07/31 10:12:52;;;;;;;6.20;2.65;;;;;;;;;;5003599;28;20034;-81
2023/07/31 10:15:18;;;;;;;5.45;3.00;;;;;;;;;;5014209;28;20107;-81
2023/07/31 10:17:47;;;;;;;6.90;3.08;;;;;;;;;;5037813;28;20518;-80
2023/07/31 10:20:12;;;;;;;5.85;2.53;;;;;;;;;;5013993;28;20500;-81
2023/07/31 10:22:38;;;;;;;8.25;3.78;;;;;;;;;;5016157;28;20038;-80
2023/07/31 10:25:04;;;;;;;7.70;3.10;;;;;;;;;;5015879;28;20417;-81
2023/07/31 10:27:30;;;;;;;5.95;2.70;;;;;;;;;;5030379;28;20065;-80
2023/07/31 10:29:58;;;;;;;5.65;2.92;;;;;;;;;;5007475;28;20480;-81
2023/07/31 10:32:25;;;;;;;5.57;2.63;;;;;;;;;;4995786;28;20041;-82
2023/07/31 10:34:51;;;;;;;6.97;3.30;;;;;;;;;;4999233;28;20033;-82
2023/07/31 10:37:29;;;;;;;8.52;2.50;;;;;;;;;;5005960;28;20104;-82
2023/07/31 10:40:10;;;;;;;5.25;2.30;;;;;;;;;;5015419;28;20091;-82
2023/07/31 10:42:38;;;;;;;6.07;2.10;;;;;;;;;;5035772;28;20059;-82
2023/07/31 10:45:06;;;;;;;5.70;2.20;;;;;;;;;;5039412;28;20033;-82
2023/07/31 10:48:02;;;;;;;5.80;2.00;;;;;;;;;;5013532;28;20030;-82
2023/07/31 10:50:29;;;;;;;4.50;1.65;;;;;;;;;;5025036;28;20091;-83
2023/07/31 10:52:55;;;;;;;6.20;2.10;;;;;;;;;;5021841;28;20025;-83
2023/07/31 10:55:21;;;;;;;4.13;1.93;;;;;;;;;;5018651;28;20100;-83
2023/07/31 10:57:50;;;;;;;4.90;2.00;;;;;;;;;;5020002;28;20288;-82
2023/07/31 11:00:28;;;;;;;4.43;1.80;;;;;;;;;;5003182;28;20038;-82
2023/07/31 11:03:13;;;;;;;4.18;1.63;;;;;;;;;;5016020;28;20033;-82
2023/07/31 11:05:46;;;;;;;4.90;1.83;;;;;;;;;;5016409;28;20057;-82
2023/07/31 11:08:28;;;;;;;4.45;2.15;;;;;;;;;;5009500;28;20532;-81
2023/07/31 11:11:02;;;;;;;4.72;2.00;;;;;;;;;;5038946;28;20037;-81
2023/07/31 11:13:52;;;;;;;5.30;2.17;;;;;;;;;;5037395;28;20033;-82
2023/07/31 11:16:18;;;;;;;4.35;2.10;;;;;;;;;;5022973;28;20034;-82
2023/07/31 11:18:45;;;;;;;4.00;2.08;;;;;;;;;;4990555;28;20373;-82
2023/07/31 11:21:15;;;;;;;4.40;2.17;;;;;;;;;;4997918;28;20132;-82
2023/07/31 11:23:41;;;;;;;4.82;2.20;;;;;;;;;;5005564;28;20057;-82
2023/07/31 11:26:13;;;;;;;6.32;2.20;;;;;;;;;;5031066;28;20117;-81
2023/07/31 11:28:38;;;;;;;6.50;2.22;;;;;;;;;;5003086;28;20099;-82
2023/07/31 11:31:04;;;;;;;4.10;1.80;;;;;;;;;;5046060;28;20030;-82
2023/07/31 11:33:29;;;;;;;6.18;2.10;;;;;;;;;;5001579;28;20036;-83
2023/07/31 11:35:55;;;;;;;4.97;2.20;;;;;;;;;;5013816;28;20056;-81
2023/07/31 11:38:23;;;;;;;6.82;2.00;;;;;;;;;;5001248;28;20030;-81
2023/07/31 11:40:48;;;;;;;9.15;3.22;;;;;;;;;;5014011;28;20041;-82
2023/07/31 11:43:17;;;;;;;5.55;2.28;;;;;;;;;;4999197;28;20034;-82
2023/07/31 11:45:48;;;;;;;5.13;2.22;;;;;;;;;;5032708;28;20041;-82
2023/07/31 11:48:21;;;;;;;4.63;2.17;;;;;;;;;;5006894;28;20038;-83
2023/07/31 11:50:49;;;;;;;6.40;2.03;;;;;;;;;;5003175;28;20029;-82
2023/07/31 11:53:15;;;;;;;4.82;2.13;;;;;;;;;;5001041;28;20121;-82
2023/07/31 11:55:41;;;;;;;4.88;2.30;;;;;;;;;;5009219;28;20030;-82
2023/07/31 11:58:06;;;;;;;5.90;2.28;;;;;;;;;;4999054;28;20034;-81
2023/07/31 12:00:32;;;;;;;7.70;2.95;;;;;;;;;;5003485;28;20432;-82
2023/07/31 12:02:57;;;;;;;6.10;2.05;;;;;;;;;;5001891;28;20033;-82
2023/07/31 12:05:23;;;;;;;6.05;2.03;;;;;;;;;;5010907;28;20869;-83
2023/07/31 12:07:53;;;;;;;4.78;2.30;;;;;;;;;;5003598;28;20033;-82
2023/07/31 12:10:32;;;;;;;7.35;2.40;;;;;;;;;;5018698;28;20034;-82
2023/07/31 12:13:03;;;;;;;5.38;2.38;;;;;;;;;;5002955;28;20030;-82
2023/07/31 12:15:33;;;;;;;6.22;2.03;;;;;;;;;;4999120;28;20440;-81
2023/07/31 12:18:18;;;;;;;4.18;1.70;;;;;;;;;;5010222;28;20424;-81
2023/07/31 12:20:45;;;;;;;7.00;2.15;;;;;;;;;;4999789;28;20034;-83
2023/07/31 12:23:19;;;;;;;3.92;1.90;;;;;;;;;;5026920;28;20042;-82
2023/07/31 12:25:44;;;;;;;5.85;2.28;;;;;;;;;;5005230;28;20040;-82
2023/07/31 12:28:13;;;;;;;4.80;2.03;;;;;;;;;;5021023;28;20033;-82
2023/07/31 12:30:40;;;;;;;4.00;1.92;;;;;;;;;;5031098;28;20043;-81
2023/07/31 12:33:15;;;;;;;4.97;2.33;;;;;;;;;;5015098;28;20087;-82
2023/07/31 12:35:46;;;;;;;5.70;2.20;;;;;;;;;;5000020;28;20551;-82
2023/07/31 12:38:13;;;;;;;5.85;1.88;;;;;;;;;;5017567;28;20028;-81
2023/07/31 12:40:40;;;;;;;6.60;1.90;;;;;;;;;;5030011;28;20036;-82
2023/07/31 12:43:06;;;;;;;4.65;1.60;;;;;;;;;;5027047;28;20033;-81
2023/07/31 12:45:32;;;;;;;4.88;1.75;;;;;;;;;;5034475;28;20049;-81
2023/07/31 12:48:01;;;;;;;3.28;1.48;;;;;;;;;;5020317;28;20378;-82
2023/07/31 12:50:26;;;;;;;3.00;1.25;;;;;;;;;;4998556;28;20037;-82
2023/07/31 12:52:57;;;;;;;3.97;1.45;;;;;;;;;;5015618;28;20527;-82
2023/07/31 12:55:23;;;;;;;3.88;1.60;;;;;;;;;;5010319;28;20191;-81
2023/07/31 12:57:49;;;;;;;4.40;1.30;;;;;;;;;;5009812;28;20568;-82
2023/07/31 13:00:14;;;;;;;3.88;1.30;;;;;;;;;;4999158;28;20543;-83
2023/07/31 13:02:40;;;;;;;4.15;1.48;;;;;;;;;;5012888;28;20038;-82
2023/07/31 13:05:06;;;;;;;3.78;1.70;;;;;;;;;;4998447;28;20050;-82
2023/07/31 13:07:31;;;;;;;5.90;1.85;;;;;;;;;;5008832;28;20044;-82
2023/07/31 13:09:56;;;;;;;4.65;1.50;;;;;;;;;;5006241;28;20516;-82
2023/07/31 13:12:22;;;;;;;4.13;1.38;;;;;;;;;;5007023;28;20088;-81
2023/07/31 13:14:47;;;;;;;3.55;1.40;;;;;;;;;;5009380;28;20103;-81
2023/07/31 13:17:13;;;;;;;2.95;1.55;;;;;;;;;;5015416;28;20503;-81
2023/07/31 13:19:38;;;;;;;5.28;1.88;;;;;;;;;;5006879;28;20152;-81
2023/07/31 13:22:03;;;;;;;3.90;1.80;;;;;;;;;;4999237;28;20033;-81
2023/07/31 13:24:29;;;;;;;4.28;1.80;;;;;;;;;;5011717;28;20029;-81
2023/07/31 13:26:55;;;;;;;4.25;1.98;;;;;;;;;;5008767;28;20437;-81
2023/07/31 13:29:21;;;;;;;5.57;1.90;;;;;;;;;;4998928;28;20116;-81
2023/07/31 13:31:47;;;;;;;4.75;2.00;;;;;;;;;;5003820;28;20492;-81
2023/07/31 13:34:12;;;;;;;6.13;1.92;;;;;;;;;;5018734;28;20040;-81
2023/07/31 13:36:38;;;;;;;5.07;2.00;;;;;;;;;;5020289;28;20421;-81
2023/07/31 13:39:03;;;;;;;4.55;1.88;;;;;;;;;;5036391;28;20484;-81
2023/07/31 13:41:28;;;;;;;5.05;1.70;;;;;;;;;;5019182;28;20428;-82
2023/07/31 13:43:54;;;;;;;4.20;1.80;;;;;;;;;;5008994;28;20396;-82
2023/07/31 13:46:19;;;;;;;4.53;2.20;;;;;;;;;;5013421;28;20112;-82
2023/07/31 13:48:45;;;;;;;4.93;2.08;;;;;;;;;;5018836;28;20126;-81
2023/07/31 13:51:10;;;;;;;4.03;1.98;;;;;;;;;;5015969;28;20041;-81
2023/07/31 13:53:35;;;;;;;5.25;1.77;;;;;;;;;;5029479;28;20033;-82
2023/07/31 13:56:01;;;;;;;5.43;2.00;;;;;;;;;;5025905;28;20041;-81
2023/07/31 13:58:26;;;;;;;5.07;2.00;;;;;;;;;;5025719;28;20036;-80
2023/07/31 14:00:52;;;;;;;4.65;1.90;;;;;;;;;;5011156;28;20459;-81
2023/07/31 14:03:17;;;;;;;3.97;1.90;;;;;;;;;;5006458;28;20040;-81
2023/07/31 14:05:42;;;;;;;5.47;2.10;;;;;;;;;;5012459;28;20387;-81
2023/07/31 14:08:08;;;;;;;3.72;1.70;;;;;;;;;;5007832;28;20049;-81
2023/07/31 14:10:33;;;;;;;4.47;2.03;;;;;;;;;;5030429;28;20038;-81
2023/07/31 14:12:59;;;;;;;4.55;2.10;;;;;;;;;;5037114;28;20034;-80
2023/07/31 14:15:24;;;;;;;7.57;2.63;;;;;;;;;;5032235;28;20057;-81
2023/07/31 14:17:49;;;;;;;4.38;2.10;;;;;;;;;;5012257;28;20429;-82
2023/07/31 14:20:17;;;;;;;4.65;2.15;;;;;;;;;;4998854;28;20043;-81
2023/07/31 14:22:43;;;;;;;6.40;2.20;;;;;;;;;;5003996;28;20493;-81
2023/07/31 14:25:10;;;;;;;5.93;1.90;;;;;;;;;;5022225;28;20092;-82
2023/07/31 14:27:36;;;;;;;6.22;2.00;;;;;;;;;;5012439;28;20307;-81
2023/07/31 14:30:02;;;;;;;8.45;2.50;;;;;;;;;;5040130;28;20048;-88
2023/07/31 14:32:27;;;;;;;5.22;2.08;;;;;;;;;;4998423;28;20040;-92
2023/07/31 14:34:54;;;;;;;5.60;2.08;;;;;;;;;;5020170;28;20037;-86
2023/07/31 14:37:20;;;;;;;5.57;2.17;;;;;;;;;;5013935;28;20057;-89
2023/07/31 14:39:45;;;;;;;6.32;2.13;;;;;;;;;;5032354;28;20030;-89
2023/07/31 14:42:11;;;;;;;4.40;1.88;;;;;;;;;;5002731;28;20033;-81